createdAt,value
2023-11-12T00:00:17.925Z,99146.41
2023-11-12T00:02:45.537Z,99151.47
2023-11-12T00:05:14.646Z,99148.06
2023-11-12T00:07:42.344Z,99157.34
2023-11-12T00:10:13.196Z,99155.56
2023-11-12T00:12:41.056Z,99155.56
2023-11-12T00:15:09.654Z,99149.63
2023-11-12T00:17:38.617Z,99152.13
2023-11-12T00:20:08.030Z,99145.31
2023-11-12T00:22:37.029Z,99152.13
2023-11-12T00:25:04.920Z,99155.50
2023-11-12T00:27:32.564Z,99148.69
2023-11-12T00:30:00.254Z,99152.13
2023-11-12T00:32:29.383Z,99144.59
2023-11-12T00:34:57.254Z,99142.91
2023-11-12T00:37:24.901Z,99135.41
2023-11-12T00:39:53.929Z,99126.09
2023-11-12T00:42:21.521Z,99125.31
2023-11-12T00:44:49.109Z,99125.41
2023-11-12T00:47:17.316Z,99112.03
2023-11-12T00:49:44.968Z,99120.50
2023-11-12T00:52:12.657Z,99110.41
2023-11-12T00:54:40.762Z,99116.28
2023-11-12T00:57:09.704Z,99108.66
2023-11-12T00:59:37.427Z,99113.69
2023-11-12T01:02:05.637Z,99110.34
2023-11-12T01:04:33.788Z,99105.22
2023-11-12T01:07:01.361Z,99110.41
2023-11-12T01:09:29.436Z,99105.31
2023-11-12T01:11:57.289Z,99112.03
2023-11-12T01:14:26.433Z,99111.22
2023-11-12T01:16:56.258Z,99106.09
2023-11-12T01:19:24.023Z,99100.22
2023-11-12T01:21:51.746Z,99108.78
2023-11-12T01:24:20.763Z,99093.47
2023-11-12T01:26:48.411Z,99105.41
2023-11-12T01:29:16.180Z,99090.19
2023-11-12T01:31:46.401Z,99091.94
2023-11-12T01:34:15.197Z,99095.38
2023-11-12T01:36:42.802Z,99093.66
2023-11-12T01:39:10.529Z,99096.16
2023-11-12T01:41:38.279Z,99097.03
2023-11-12T01:44:06.022Z,99094.50
2023-11-12T01:46:35.622Z,99091.94
2023-11-12T01:49:06.102Z,99093.66
2023-11-12T01:51:35.502Z,99094.47
2023-11-12T01:54:03.824Z,99095.38
2023-11-12T01:56:33.457Z,99081.78
2023-11-12T01:59:02.297Z,99080.06
2023-11-12T02:01:29.962Z,99077.53
2023-11-12T02:03:58.235Z,99077.59
2023-11-12T02:06:27.576Z,99075.78
2023-11-12T02:08:56.593Z,99078.34
2023-11-12T02:11:25.004Z,99074.88
2023-11-12T02:13:54.678Z,99074.06
2023-11-12T02:16:23.139Z,99073.25
2023-11-12T02:18:50.869Z,99068.06
2023-11-12T02:21:24.141Z,99057.94
2023-11-12T02:23:53.275Z,99051.94
2023-11-12T02:26:21.069Z,99056.09
2023-11-12T02:28:49.169Z,99050.81
2023-11-12T02:31:17.650Z,99043.81
2023-11-12T02:33:45.744Z,99044.69
2023-11-12T02:36:14.933Z,99040.53
2023-11-12T02:38:42.555Z,99030.97
2023-11-12T02:41:12.771Z,99044.50
2023-11-12T02:43:41.310Z,99041.06
2023-11-12T02:46:10.124Z,99029.91
2023-11-12T02:48:51.402Z,99027.22
2023-11-12T02:51:19.501Z,99023.47
2023-11-12T02:53:47.174Z,99022.41
2023-11-12T02:56:17.724Z,99018.00
2023-11-12T02:58:45.398Z,99022.09
2023-11-12T03:01:13.035Z,99021.06
2023-11-12T03:03:40.789Z,99020.06
2023-11-12T03:06:08.535Z,99013.22
2023-11-12T03:08:36.164Z,99006.41
2023-11-12T03:11:03.898Z,99006.28
2023-11-12T03:13:32.935Z,99001.13
2023-11-12T03:16:00.608Z,98999.31
2023-11-12T03:18:28.271Z,98989.81
2023-11-12T03:20:56.045Z,98991.44
2023-11-12T03:23:23.624Z,98981.81
2023-11-12T03:25:51.214Z,98982.56
2023-11-12T03:28:18.997Z,98981.63
2023-11-12T03:30:48.065Z,98972.22
2023-11-12T03:33:15.859Z,98974.59
2023-11-12T03:35:43.634Z,98964.22
2023-11-12T03:38:11.569Z,98967.47
2023-11-12T03:40:39.169Z,98961.44
2023-11-12T03:43:07.153Z,98957.16
2023-11-12T03:45:34.836Z,98959.66
2023-11-12T03:48:03.847Z,98953.59
2023-11-12T03:50:31.506Z,98945.84
2023-11-12T03:52:59.088Z,98938.97
2023-11-12T03:55:26.747Z,98938.00
2023-11-12T03:57:54.448Z,98942.88
2023-11-12T04:00:22.288Z,98941.06
2023-11-12T04:02:50.020Z,98937.47
2023-11-12T04:05:19.177Z,98932.16
2023-11-12T04:07:47.148Z,98926.97
2023-11-12T04:10:14.888Z,98919.28
2023-11-12T04:12:42.556Z,98919.97
2023-11-12T04:15:10.665Z,98913.09
2023-11-12T04:17:38.532Z,98921.53
2023-11-12T04:20:09.696Z,98919.91
2023-11-12T04:22:42.450Z,98908.78
2023-11-12T04:25:12.385Z,98909.50
2023-11-12T04:27:39.987Z,98907.78
2023-11-12T04:30:10.515Z,98908.66
2023-11-12T04:32:39.821Z,98901.06
2023-11-12T04:35:08.397Z,98907.91
2023-11-12T04:37:37.034Z,98914.72
2023-11-12T04:40:07.438Z,98913.09
2023-11-12T04:42:35.137Z,98907.13
2023-11-12T04:45:03.729Z,98908.81
2023-11-12T04:47:31.724Z,98905.47
2023-11-12T04:50:00.240Z,98898.69
2023-11-12T04:52:27.868Z,98895.44
2023-11-12T04:54:55.536Z,98897.94
2023-11-12T04:57:24.687Z,98907.31
2023-11-12T04:59:52.870Z,98913.22
2023-11-12T05:02:21.056Z,98913.09
2023-11-12T05:04:48.662Z,98919.81
2023-11-12T05:07:16.357Z,98919.69
2023-11-12T05:09:44.088Z,98922.16
2023-11-12T05:12:11.729Z,98933.88
2023-11-12T05:14:40.888Z,98933.84
2023-11-12T05:17:08.533Z,98931.84
2023-11-12T05:19:37.186Z,98935.16
2023-11-12T05:22:04.920Z,98938.38
2023-11-12T05:24:32.536Z,98941.72
2023-11-12T05:27:00.206Z,98937.31
2023-11-12T05:29:27.837Z,98935.47
2023-11-12T05:31:57.486Z,98940.56
2023-11-12T05:34:25.275Z,98943.06
2023-11-12T05:36:53.384Z,98940.44
2023-11-12T05:39:21.649Z,98949.63
2023-11-12T05:41:49.282Z,98946.06
2023-11-12T05:44:16.873Z,98956.03
2023-11-12T05:46:44.484Z,98958.59
2023-11-12T05:49:13.398Z,98958.59
2023-11-12T05:51:41.062Z,98958.59
2023-11-12T05:54:08.851Z,98961.09
2023-11-12T05:56:36.556Z,98959.41
2023-11-12T05:59:04.188Z,98969.56
2023-11-12T06:01:31.973Z,98960.31
2023-11-12T06:04:01.297Z,98964.66
2023-11-12T06:06:30.374Z,98970.63
2023-11-12T06:08:58.828Z,98972.34
2023-11-12T06:11:27.078Z,98974.06
2023-11-12T06:13:54.654Z,98973.16
2023-11-12T06:16:22.514Z,98977.53
2023-11-12T06:18:50.646Z,98977.44
2023-11-12T06:21:18.342Z,98987.59
2023-11-12T06:23:47.388Z,98989.31
2023-11-12T06:26:15.064Z,98993.56
2023-11-12T06:28:42.626Z,98998.69
2023-11-12T06:31:10.369Z,99003.09
2023-11-12T06:33:38.280Z,99005.44
2023-11-12T06:36:06.962Z,99015.56
2023-11-12T06:38:34.506Z,99015.53
2023-11-12T06:41:03.484Z,99024.06
2023-11-12T06:43:31.114Z,99032.56
2023-11-12T06:45:58.713Z,99030.81
2023-11-12T06:48:26.555Z,99029.19
2023-11-12T06:50:54.153Z,99036.81
2023-11-12T06:53:21.742Z,99041.06
2023-11-12T06:55:49.358Z,99048.84
2023-11-12T06:58:18.321Z,99046.94
2023-11-12T07:00:46.863Z,99048.63
2023-11-12T07:03:14.643Z,99057.06
2023-11-12T07:05:42.864Z,99052.84
2023-11-12T07:08:10.505Z,99057.97
2023-11-12T07:10:39.100Z,99051.47
2023-11-12T07:13:06.812Z,99047.59
2023-11-12T07:15:35.837Z,99052.81
2023-11-12T07:18:03.511Z,99050.63
2023-11-12T07:20:33.672Z,99055.88
2023-11-12T07:23:01.975Z,99058.28
2023-11-12T07:25:29.671Z,99066.88
2023-11-12T07:27:57.314Z,99060.59
2023-11-12T07:30:25.153Z,99060.91
2023-11-12T07:32:54.193Z,99061.16
2023-11-12T07:35:21.798Z,99061.22
2023-11-12T07:37:49.485Z,99058.28
2023-11-12T07:40:19.060Z,99058.63
2023-11-12T07:42:46.726Z,99060.22
2023-11-12T07:45:21.009Z,99068.78
2023-11-12T07:47:51.035Z,99058.81
2023-11-12T07:50:19.945Z,99053.66
2023-11-12T07:52:47.780Z,99048.63
2023-11-12T07:55:15.462Z,99052.19
2023-11-12T07:57:43.641Z,99057.41
2023-11-12T08:00:14.266Z,99061.84
2023-11-12T08:02:42.163Z,99057.66
2023-11-12T08:05:11.145Z,99046.00
2023-11-12T08:07:40.986Z,99048.78
2023-11-12T08:10:09.589Z,99045.63
2023-11-12T08:12:37.421Z,99051.06
2023-11-12T08:15:06.480Z,99051.13
2023-11-12T08:17:34.394Z,99050.44
2023-11-12T08:20:02.020Z,99052.59
2023-11-12T08:22:29.601Z,99061.28
2023-11-12T08:24:58.616Z,99062.38
2023-11-12T08:27:26.273Z,99062.53
2023-11-12T08:29:53.980Z,99061.97
2023-11-12T08:32:21.577Z,99073.56
2023-11-12T08:34:49.171Z,99062.84
2023-11-12T08:37:16.978Z,99066.59
2023-11-12T08:39:44.722Z,99063.50
2023-11-12T08:42:14.094Z,99058.41
2023-11-12T08:44:41.789Z,99059.63
2023-11-12T08:47:09.554Z,99069.44
2023-11-12T08:49:37.263Z,99070.75
2023-11-12T08:52:05.384Z,99072.75
2023-11-12T08:54:33.206Z,99069.97
2023-11-12T08:57:02.996Z,99064.47
2023-11-12T08:59:33.311Z,99059.06
2023-11-12T09:02:01.086Z,99058.69
2023-11-12T09:04:28.996Z,99056.19
2023-11-12T09:06:56.892Z,99063.00
2023-11-12T09:09:24.492Z,99064.19
2023-11-12T09:11:52.511Z,99065.72
2023-11-12T09:14:22.363Z,99071.44
2023-11-12T09:16:51.387Z,99070.47
2023-11-12T09:19:19.123Z,99077.72
2023-11-12T09:21:46.838Z,99073.75
2023-11-12T09:24:15.257Z,99073.97
2023-11-12T09:26:42.940Z,99075.88
2023-11-12T09:29:10.516Z,99073.59
2023-11-12T09:31:38.127Z,99082.28
2023-11-12T09:34:07.579Z,99080.66
2023-11-12T09:36:35.388Z,99079.91
2023-11-12T09:39:04.711Z,99084.03
2023-11-12T09:41:34.308Z,99091.97
2023-11-12T09:44:04.912Z,99102.00
2023-11-12T09:46:33.513Z,99111.28
2023-11-12T09:49:01.582Z,99107.00
2023-11-12T09:51:30.754Z,99109.25
2023-11-12T09:54:00.070Z,99113.28
2023-11-12T09:56:27.704Z,99112.59
2023-11-12T09:58:55.936Z,99117.97
2023-11-12T10:01:24.552Z,99111.56
2023-11-12T10:03:53.104Z,99117.72
2023-11-12T10:06:23.308Z,99111.75
2023-11-12T10:08:52.556Z,99115.34
2023-11-12T10:11:22.534Z,99113.09
2023-11-12T10:13:52.069Z,99110.72
2023-11-12T10:16:23.104Z,99114.34
2023-11-12T10:18:51.643Z,99104.13
2023-11-12T10:21:20.512Z,99109.28
2023-11-12T10:23:48.112Z,99103.84
2023-11-12T10:26:17.309Z,99105.47
2023-11-12T10:28:45.074Z,99107.97
2023-11-12T10:31:15.330Z,99103.69
2023-11-12T10:33:43.841Z,99099.47
2023-11-12T10:36:14.345Z,99092.66
2023-11-12T10:38:48.315Z,99093.56
2023-11-12T10:41:17.479Z,99088.22
2023-11-12T10:43:58.521Z,99098.41
2023-11-12T10:46:27.506Z,99105.16
2023-11-12T10:48:56.657Z,99104.22
2023-11-12T10:51:26.281Z,99099.19
2023-11-12T10:53:57.594Z,99105.94
2023-11-12T10:56:26.666Z,99104.38
2023-11-12T10:58:55.353Z,99096.00
2023-11-12T11:01:24.307Z,99095.03
2023-11-12T11:03:52.774Z,99089.75
2023-11-12T11:06:20.693Z,99084.84
2023-11-12T11:08:48.273Z,99077.31
2023-11-12T11:11:16.171Z,99079.16
2023-11-12T11:13:47.109Z,99083.56
2023-11-12T11:16:46.905Z,99084.56
2023-11-12T11:19:14.718Z,99085.44
2023-11-12T11:21:43.148Z,99090.44
2023-11-12T11:24:44.965Z,99084.31
2023-11-12T11:27:13.863Z,99080.03
2023-11-12T11:30:07.082Z,99078.72
2023-11-12T11:32:34.909Z,99082.41
2023-11-12T11:35:08.107Z,99080.84
2023-11-12T11:38:10.730Z,99079.25
2023-11-12T11:40:39.534Z,99079.31
2023-11-12T11:43:35.089Z,99081.19
2023-11-12T11:46:12.144Z,99069.25
2023-11-12T11:49:13.262Z,99076.13
2023-11-12T11:51:49.684Z,99070.34
2023-11-12T11:54:17.650Z,99067.66
2023-11-12T11:56:45.395Z,99069.25
2023-11-12T11:59:13.778Z,99064.09
2023-11-12T12:01:49.270Z,99068.22
2023-11-12T12:04:17.737Z,99058.63
2023-11-12T12:06:47.446Z,99070.66
2023-11-12T12:09:18.933Z,99067.13
2023-11-12T12:11:48.212Z,99070.63
2023-11-12T12:14:16.987Z,99072.34
2023-11-12T12:16:46.475Z,99071.38
2023-11-12T12:19:19.920Z,99074.69
2023-11-12T12:21:49.939Z,99078.28
2023-11-12T12:24:18.860Z,99078.38
2023-11-12T12:26:46.767Z,99071.59
2023-11-12T12:29:19.677Z,99073.41
2023-11-12T12:31:49.419Z,99073.47
2023-11-12T12:34:20.398Z,99069.25
2023-11-12T12:37:06.261Z,99064.19
2023-11-12T12:39:51.341Z,99062.44
2023-11-12T12:42:20.285Z,99061.56
2023-11-12T12:44:50.091Z,99057.22
2023-11-12T12:47:31.574Z,99052.88
2023-11-12T12:50:00.690Z,99049.44
2023-11-12T12:52:28.824Z,99055.41
2023-11-12T12:54:56.541Z,99063.88
2023-11-12T12:57:25.314Z,99062.16
2023-11-12T12:59:52.944Z,99061.22
2023-11-12T13:02:21.047Z,99063.41
2023-11-12T13:04:51.779Z,99062.41
2023-11-12T13:07:22.670Z,99056.31
2023-11-12T13:09:51.243Z,99059.66
2023-11-12T13:12:19.149Z,99054.41
2023-11-12T13:14:48.451Z,99059.38
2023-11-12T13:17:16.821Z,99059.25
2023-11-12T13:19:45.720Z,99053.22
2023-11-12T13:22:13.374Z,99053.22
2023-11-12T13:24:44.353Z,99050.69
2023-11-12T13:27:12.187Z,99040.31
2023-11-12T13:29:41.938Z,99046.19
2023-11-12T13:32:10.483Z,99043.59
2023-11-12T13:34:39.186Z,99034.94
2023-11-12T13:37:06.777Z,99036.59
2023-11-12T13:39:34.520Z,99035.56
2023-11-12T13:42:05.728Z,99029.50
2023-11-12T13:44:35.603Z,99028.59
2023-11-12T13:47:03.360Z,99031.91
2023-11-12T13:49:31.548Z,99019.06
2023-11-12T13:51:59.483Z,99022.31
2023-11-12T13:54:27.143Z,99024.00
2023-11-12T13:56:54.763Z,99020.69
2023-11-12T13:59:23.697Z,99025.22
2023-11-12T14:01:52.246Z,99027.94
2023-11-12T14:04:20.053Z,99030.72
2023-11-12T14:06:51.992Z,99026.47
2023-11-12T14:09:20.198Z,99023.84
2023-11-12T14:11:51.802Z,99025.47
2023-11-12T14:14:19.677Z,99026.31
2023-11-12T14:16:48.736Z,99026.22
2023-11-12T14:19:16.547Z,99034.66
2023-11-12T14:21:45.034Z,99036.19
2023-11-12T14:24:13.436Z,99035.41
2023-11-12T14:26:44.776Z,99042.91
2023-11-12T14:29:13.544Z,99041.16
2023-11-12T14:31:41.200Z,99047.13
2023-11-12T14:34:14.184Z,99052.28
2023-11-12T14:36:42.444Z,99056.53
2023-11-12T14:39:12.122Z,99055.66
2023-11-12T14:41:41.732Z,99052.13
2023-11-12T14:44:09.856Z,99059.72
2023-11-12T14:46:38.103Z,99057.91
2023-11-12T14:49:07.487Z,99059.56
2023-11-12T14:51:41.384Z,99065.59
2023-11-12T14:54:09.325Z,99073.19
2023-11-12T14:56:37.461Z,99074.63
2023-11-12T14:59:05.939Z,99073.56
2023-11-12T15:01:33.638Z,99081.25
2023-11-12T15:04:01.658Z,99077.47
2023-11-12T15:06:29.383Z,99080.59
2023-11-12T15:08:58.375Z,99083.94
2023-11-12T15:11:26.078Z,99088.16
2023-11-12T15:13:54.370Z,99082.94
2023-11-12T15:16:24.642Z,99092.31
2023-11-12T15:18:52.873Z,99095.44
2023-11-12T15:21:21.119Z,99102.25
2023-11-12T15:23:48.974Z,99098.72
2023-11-12T15:26:18.185Z,99102.84
2023-11-12T15:28:47.421Z,99113.75
2023-11-12T15:31:16.052Z,99103.41
2023-11-12T15:33:43.777Z,99097.41
2023-11-12T15:36:11.663Z,99110.19
2023-11-12T15:38:39.356Z,99104.13
2023-11-12T15:41:07.381Z,99104.94
2023-11-12T15:43:36.449Z,99110.91
2023-11-12T15:46:06.407Z,99117.63
2023-11-12T15:48:34.305Z,99116.69
2023-11-12T15:51:02.373Z,99111.53
2023-11-12T15:53:32.600Z,99113.84
2023-11-12T15:56:00.941Z,99121.38
2023-11-12T15:58:29.398Z,99117.75
2023-11-12T16:00:58.722Z,99129.72
2023-11-12T16:03:26.824Z,99133.22
2023-11-12T16:05:54.654Z,99132.97
2023-11-12T16:08:22.900Z,99132.00
2023-11-12T16:10:50.490Z,99140.38
2023-11-12T16:13:18.983Z,99150.50
2023-11-12T16:15:46.629Z,99140.97
2023-11-12T16:18:15.572Z,99146.75
2023-11-12T16:20:43.221Z,99156.13
2023-11-12T16:23:11.238Z,99152.63
2023-11-12T16:25:38.925Z,99153.28
2023-11-12T16:28:06.932Z,99150.59
2023-11-12T16:30:35.213Z,99154.91
2023-11-12T16:33:02.882Z,99158.16
2023-11-12T16:35:33.274Z,99162.22
2023-11-12T16:38:05.132Z,99168.97
2023-11-12T16:40:35.227Z,99174.94
2023-11-12T16:43:04.362Z,99167.13
2023-11-12T16:45:32.635Z,99170.44
2023-11-12T16:48:01.098Z,99169.50
2023-11-12T16:50:29.450Z,99173.56
2023-11-12T16:52:58.408Z,99171.00
2023-11-12T16:55:26.208Z,99175.19
2023-11-12T16:57:53.942Z,99173.19
2023-11-12T17:00:22.992Z,99176.56
2023-11-12T17:02:50.860Z,99174.91
2023-11-12T17:05:20.331Z,99184.97
2023-11-12T17:07:48.146Z,99188.06
2023-11-12T17:10:17.284Z,99185.34
2023-11-12T17:12:44.982Z,99188.84
2023-11-12T17:15:12.986Z,99186.34
2023-11-12T17:17:42.011Z,99185.44
2023-11-12T17:20:13.999Z,99187.81
2023-11-12T17:22:42.521Z,99186.91
2023-11-12T17:25:11.170Z,99191.16
2023-11-12T17:27:40.515Z,99195.38
2023-11-12T17:30:09.397Z,99196.75
2023-11-12T17:32:38.848Z,99201.75
2023-11-12T17:35:08.519Z,99202.69
2023-11-12T17:37:36.329Z,99206.75
2023-11-12T17:40:04.431Z,99204.16
2023-11-12T17:42:32.218Z,99204.25
2023-11-12T17:45:03.357Z,99205.84
2023-11-12T17:47:31.003Z,99198.09
2023-11-12T17:49:58.992Z,99209.72
2023-11-12T17:52:26.959Z,99222.44
2023-11-12T17:54:57.285Z,99225.72
2023-11-12T17:57:28.441Z,99221.38
2023-11-12T17:59:56.146Z,99225.50
2023-11-12T18:02:26.225Z,99217.81
2023-11-12T18:04:54.020Z,99225.63
2023-11-12T18:07:21.752Z,99222.25
2023-11-12T18:09:49.382Z,99234.97
2023-11-12T18:12:16.978Z,99222.25
2023-11-12T18:14:44.627Z,99229.88
2023-11-12T18:17:12.938Z,99227.25
2023-11-12T18:19:42.113Z,99231.41
2023-11-12T18:22:10.657Z,99234.00
2023-11-12T18:24:38.599Z,99244.84
2023-11-12T18:27:06.413Z,99254.31
2023-11-12T18:29:36.059Z,99245.06
2023-11-12T18:32:04.916Z,99258.69
2023-11-12T18:34:33.519Z,99262.91
2023-11-12T18:37:02.626Z,99267.19
2023-11-12T18:39:31.106Z,99270.63
2023-11-12T18:41:58.722Z,99268.88
2023-11-12T18:44:26.277Z,99276.69
2023-11-12T18:46:54.314Z,99273.31
2023-11-12T18:49:23.078Z,99275.34
2023-11-12T18:51:51.235Z,99274.00
2023-11-12T18:54:20.752Z,99299.16
2023-11-12T18:56:48.557Z,99302.38
2023-11-12T18:59:16.942Z,99290.25
2023-11-12T19:01:44.678Z,99292.72
2023-11-12T19:04:12.445Z,99293.38
2023-11-12T19:06:41.512Z,99285.66
2023-11-12T19:09:10.240Z,99296.09
2023-11-12T19:11:39.187Z,99300.78
2023-11-12T19:14:08.240Z,99297.50
2023-11-12T19:16:36.875Z,99300.22
2023-11-12T19:19:05.419Z,99301.91
2023-11-12T19:21:36.195Z,99309.66
2023-11-12T19:24:07.541Z,99311.31
2023-11-12T19:26:36.027Z,99306.19
2023-11-12T19:29:05.001Z,99316.44
2023-11-12T19:31:34.377Z,99318.84
2023-11-12T19:34:02.349Z,99310.97
2023-11-12T19:36:30.129Z,99311.94
2023-11-12T19:38:57.820Z,99311.81
2023-11-12T19:41:25.478Z,99310.03
2023-11-12T19:43:54.432Z,99310.91
2023-11-12T19:46:23.673Z,99304.25
2023-11-12T19:48:54.096Z,99311.19
2023-11-12T19:51:22.362Z,99304.16
2023-11-12T19:53:50.076Z,99304.16
2023-11-12T19:56:18.246Z,99300.97
2023-11-12T19:58:47.245Z,99298.53
2023-11-12T20:01:16.133Z,99309.78
2023-11-12T20:03:46.324Z,99306.34
2023-11-12T20:06:14.760Z,99313.22
2023-11-12T20:08:42.482Z,99316.72
2023-11-12T20:11:10.152Z,99313.47
2023-11-12T20:13:40.098Z,99306.69
2023-11-12T20:16:10.350Z,99320.19
2023-11-12T20:18:38.358Z,99330.50
2023-11-12T20:21:10.610Z,99320.28
2023-11-12T20:23:38.438Z,99320.28
2023-11-12T20:26:06.589Z,99334.91
2023-11-12T20:28:34.544Z,99332.25
2023-11-12T20:31:03.987Z,99323.91
2023-11-12T20:33:31.654Z,99331.56
2023-11-12T20:36:00.204Z,99325.63
2023-11-12T20:38:29.189Z,99324.84
2023-11-12T20:40:56.886Z,99319.75
2023-11-12T20:43:24.881Z,99320.63
2023-11-12T20:45:54.480Z,99320.53
2023-11-12T20:48:22.154Z,99318.66
2023-11-12T20:50:49.849Z,99327.97
2023-11-12T20:53:17.467Z,99334.59
2023-11-12T20:55:46.483Z,99339.72
2023-11-12T20:58:14.106Z,99330.19
2023-11-12T21:00:44.341Z,99337.03
2023-11-12T21:03:12.087Z,99337.03
2023-11-12T21:05:39.763Z,99336.22
2023-11-12T21:08:07.368Z,99350.50
2023-11-12T21:10:36.652Z,99347.16
2023-11-12T21:13:05.946Z,99349.81
2023-11-12T21:15:33.583Z,99343.78
2023-11-12T21:18:01.509Z,99341.28
2023-11-12T21:20:29.595Z,99336.13
2023-11-12T21:22:59.043Z,99325.91
2023-11-12T21:25:28.154Z,99330.00
2023-11-12T21:27:55.835Z,99320.66
2023-11-12T21:30:27.186Z,99314.56
2023-11-12T21:32:58.127Z,99321.31
2023-11-12T21:35:26.179Z,99327.47
2023-11-12T21:37:54.008Z,99316.53
2023-11-12T21:40:22.671Z,99327.66
2023-11-12T21:42:50.944Z,99351.41
2023-11-12T21:45:18.564Z,99355.84
2023-11-12T21:47:47.481Z,99366.06
2023-11-12T21:50:17.056Z,99366.06
2023-11-12T21:52:45.225Z,99347.38
2023-11-12T21:55:12.856Z,99345.72
2023-11-12T21:57:40.541Z,99345.63
2023-11-12T22:00:12.628Z,99340.41
2023-11-12T22:02:41.303Z,99345.53
2023-11-12T22:05:11.117Z,99348.91
2023-11-12T22:07:39.383Z,99327.53
2023-11-12T22:10:10.717Z,99315.69
2023-11-12T22:12:39.684Z,99321.00
2023-11-12T22:15:09.995Z,99326.16
2023-11-12T22:17:37.929Z,99327.91
2023-11-12T22:20:07.086Z,99336.44
2023-11-12T22:22:35.022Z,99331.19
2023-11-12T22:25:11.375Z,99336.53
2023-11-12T22:27:43.403Z,99323.00
2023-11-12T22:30:13.017Z,99327.56
2023-11-12T22:32:40.699Z,99327.56
2023-11-12T22:35:09.745Z,99339.63
2023-11-12T22:37:38.695Z,99331.13
2023-11-12T22:40:08.250Z,99334.72
2023-11-12T22:42:36.466Z,99342.53
2023-11-12T22:45:04.371Z,99346.13
2023-11-12T22:47:32.698Z,99347.16
2023-11-12T22:50:00.477Z,99345.53
2023-11-12T22:52:28.617Z,99362.72
2023-11-12T22:54:57.636Z,99371.28
2023-11-12T22:57:26.178Z,99367.81
2023-11-12T22:59:53.808Z,99361.06
2023-11-12T23:02:22.015Z,99368.72
2023-11-12T23:04:49.953Z,99359.31
2023-11-12T23:07:18.808Z,99357.63
2023-11-12T23:09:46.703Z,99361.06
2023-11-12T23:12:19.650Z,99351.56
2023-11-12T23:14:47.311Z,99348.25
2023-11-12T23:17:15.055Z,99347.38
2023-11-12T23:19:43.007Z,99342.38
2023-11-12T23:22:10.647Z,99344.19
2023-11-12T23:24:38.317Z,99351.13
2023-11-12T23:27:06.021Z,99344.28
2023-11-12T23:29:35.901Z,99343.59
2023-11-12T23:32:07.454Z,99359.84
2023-11-12T23:34:37.111Z,99359.97
2023-11-12T23:37:07.641Z,99348.91
2023-11-12T23:39:36.818Z,99339.53
2023-11-12T23:42:05.113Z,99341.28
2023-11-12T23:44:32.682Z,99343.84
2023-11-12T23:47:01.673Z,99336.25
2023-11-12T23:49:29.360Z,99343.94
2023-11-12T23:51:58.346Z,99337.13
2023-11-12T23:54:26.043Z,99341.38
2023-11-12T23:56:55.017Z,99334.72
2023-11-12T23:59:22.932Z,99341.56
